Terminal Aerodrome Forecast
Issued by NWS

Current Version | Previous Version | Graphics & Text | Print | Product List | Glossary On
Versions: 1 2 3 4 5 6 7 8 9 10 11 12 13 14 15 16 17 18 19 20 21 22 23 24 25 26 27 28 29 30 31 32 33 34 35 36 37 38 39 40
000
FTUS41 KRNK 212208 AAB
TAFLWB
TAF AMD
KLWB 212208Z 2122/2218 30005KT P6SM SCT004 SCT022 BKN080
      TEMPO 2122/2123 3SM SHRA BR OVC020
     FM220300 00000KT 3SM BR SCT002
     FM220800 00000KT 1/4SM FG VV002
     FM221300 00000KT 3SM BR SCT005 BKN025
     FM221500 27004KT P6SM BKN040 BKN100=

USA.gov is the U.S. government's official web portal to all federal, state and local government web resources and services.